Main page
METAR-TAF:

METAR-TAF

Airports :

Nador International Airport

Nador, Morocco

latitude: 34-59-20N, longitude: 003-01-42W, elevation: 175 m

Current weather observation

The report was made 17 minutes ago, at 19:00 UTC
Wind 5 kt from the West/Northwest
Temperature 15°C
Humidity 67%
Pressure 1013 hPa
Visibility: 8000 m
Scattered clouds at a height of 3300 ft
Broken clouds at a height of 10000 ft

METAR: GMMW 181900Z 30005KT 8000 SCT033 BKN100 15/09 Q1013 NOSIG

Time: 20:17 (19:17 UTC)

Forecast

The report was made 2 hours and 17 minutes ago, at 17:00 UTC
Forecast valid from 18 at 18 UTC to 19 at 24 UTC
Wind 4 kt from the North
Visibility: 8000 m
Scattered clouds at a height of 800 ft
Broken clouds at a height of 10000 ft

TAF: GMMW 181700Z 1818/1924 36004KT 8000 SCT008 BKN100

Weather observations and forecasts of more than 4000 airports (METAR and TAF reports).

The available stations are represented by yellow and red dots on the map.

Hover mouse over dot to see the name of the station.

Then click to see weather observations and forecasts.

To change the map : click on the green buttons with a black cross to zoom in, on the green button with a dash to zoom out, or on the green arrows for adjacent maps.


METAR-TAF: